sensor_id;sensor_type;location;lat;lon;timestamp;P1;durP1;ratioP1;P2;durP2;ratioP2
14394;SDS011;7282;49.204;10.652;2023-04-03T00:01:48;3.73;;;3.30;;
14394;SDS011;7282;49.204;10.652;2023-04-03T00:04:14;3.23;;;2.93;;
14394;SDS011;7282;49.204;10.652;2023-04-03T00:06:41;3.23;;;2.93;;
14394;SDS011;7282;49.204;10.652;2023-04-03T00:09:08;3.00;;;2.80;;
14394;SDS011;7282;49.204;10.652;2023-04-03T00:11:35;3.33;;;3.03;;
14394;SDS011;7282;49.204;10.652;2023-04-03T00:14:01;3.17;;;2.87;;
14394;SDS011;7282;49.204;10.652;2023-04-03T00:16:28;3.20;;;2.90;;
14394;SDS011;7282;49.204;10.652;2023-04-03T00:18:55;3.00;;;2.70;;
14394;SDS011;7282;49.204;10.652;2023-04-03T00:21:21;4.33;;;3.23;;
14394;SDS011;7282;49.204;10.652;2023-04-03T00:23:48;3.10;;;2.90;;
14394;SDS011;7282;49.204;10.652;2023-04-03T00:26:15;3.33;;;3.03;;
14394;SDS011;7282;49.204;10.652;2023-04-03T00:28:42;4.93;;;3.37;;
14394;SDS011;7282;49.204;10.652;2023-04-03T00:31:08;3.57;;;3.20;;
14394;SDS011;7282;49.204;10.652;2023-04-03T00:33:35;3.70;;;3.40;;
14394;SDS011;7282;49.204;10.652;2023-04-03T00:36:05;3.73;;;3.00;;
14394;SDS011;7282;49.204;10.652;2023-04-03T00:38:33;3.97;;;3.30;;
14394;SDS011;7282;49.204;10.652;2023-04-03T00:40:59;3.53;;;3.23;;
14394;SDS011;7282;49.204;10.652;2023-04-03T00:43:26;3.30;;;3.00;;
14394;SDS011;7282;49.204;10.652;2023-04-03T00:45:54;4.00;;;3.23;;
14394;SDS011;7282;49.204;10.652;2023-04-03T00:51:02;4.00;;;3.60;;
14394;SDS011;7282;49.204;10.652;2023-04-03T00:53:31;3.47;;;3.10;;
14394;SDS011;7282;49.204;10.652;2023-04-03T00:55:58;3.47;;;3.17;;
14394;SDS011;7282;49.204;10.652;2023-04-03T00:58:28;3.53;;;3.17;;
14394;SDS011;7282;49.204;10.652;2023-04-03T01:00:55;3.50;;;3.20;;
14394;SDS011;7282;49.204;10.652;2023-04-03T01:03:23;3.50;;;3.20;;
14394;SDS011;7282;49.204;10.652;2023-04-03T01:05:50;5.60;;;3.17;;
14394;SDS011;7282;49.204;10.652;2023-04-03T01:08:17;3.40;;;3.10;;
14394;SDS011;7282;49.204;10.652;2023-04-03T01:10:44;3.47;;;3.17;;
14394;SDS011;7282;49.204;10.652;2023-04-03T01:13:22;3.60;;;3.30;;
14394;SDS011;7282;49.204;10.652;2023-04-03T01:15:48;3.23;;;3.03;;
14394;SDS011;7282;49.204;10.652;2023-04-03T01:18:15;3.80;;;3.00;;
14394;SDS011;7282;49.204;10.652;2023-04-03T01:20:46;3.53;;;3.23;;
14394;SDS011;7282;49.204;10.652;2023-04-03T01:23:17;6.17;;;3.67;;
14394;SDS011;7282;49.204;10.652;2023-04-03T01:25:52;3.27;;;2.97;;
14394;SDS011;7282;49.204;10.652;2023-04-03T01:28:15;4.20;;;3.80;;
14394;SDS011;7282;49.204;10.652;2023-04-03T01:30:51;3.70;;;3.30;;
14394;SDS011;7282;49.204;10.652;2023-04-03T01:33:17;3.70;;;3.37;;
14394;SDS011;7282;49.204;10.652;2023-04-03T01:35:44;3.53;;;3.10;;
14394;SDS011;7282;49.204;10.652;2023-04-03T01:38:11;3.40;;;3.10;;
14394;SDS011;7282;49.204;10.652;2023-04-03T01:40:37;3.47;;;3.13;;
14394;SDS011;7282;49.204;10.652;2023-04-03T01:43:04;3.37;;;3.07;;
14394;SDS011;7282;49.204;10.652;2023-04-03T01:45:31;3.03;;;2.83;;
14394;SDS011;7282;49.204;10.652;2023-04-03T01:47:57;3.73;;;3.27;;
14394;SDS011;7282;49.204;10.652;2023-04-03T01:50:24;3.77;;;3.47;;
14394;SDS011;7282;49.204;10.652;2023-04-03T01:52:51;3.33;;;2.90;;
14394;SDS011;7282;49.204;10.652;2023-04-03T01:55:18;4.50;;;3.30;;
14394;SDS011;7282;49.204;10.652;2023-04-03T01:57:44;4.67;;;3.30;;
14394;SDS011;7282;49.204;10.652;2023-04-03T02:00:11;4.00;;;3.20;;
14394;SDS011;7282;49.204;10.652;2023-04-03T02:02:38;4.37;;;3.50;;
14394;SDS011;7282;49.204;10.652;2023-04-03T02:05:05;4.20;;;3.20;;
14394;SDS011;7282;49.204;10.652;2023-04-03T02:07:32;3.30;;;3.00;;
14394;SDS011;7282;49.204;10.652;2023-04-03T02:09:59;6.00;;;3.30;;
14394;SDS011;7282;49.204;10.652;2023-04-03T02:12:25;3.57;;;3.03;;
14394;SDS011;7282;49.204;10.652;2023-04-03T02:14:52;3.43;;;3.13;;
14394;SDS011;7282;49.204;10.652;2023-04-03T02:17:19;3.93;;;3.53;;
14394;SDS011;7282;49.204;10.652;2023-04-03T02:19:46;3.50;;;3.20;;
14394;SDS011;7282;49.204;10.652;2023-04-03T02:22:12;3.73;;;3.10;;
14394;SDS011;7282;49.204;10.652;2023-04-03T02:24:39;3.53;;;3.17;;
14394;SDS011;7282;49.204;10.652;2023-04-03T02:27:06;3.37;;;3.07;;
14394;SDS011;7282;49.204;10.652;2023-04-03T02:29:33;3.23;;;2.97;;
14394;SDS011;7282;49.204;10.652;2023-04-03T02:31:59;3.40;;;3.10;;
14394;SDS011;7282;49.204;10.652;2023-04-03T02:34:26;4.57;;;3.73;;
14394;SDS011;7282;49.204;10.652;2023-04-03T02:36:53;3.87;;;3.23;;
14394;SDS011;7282;49.204;10.652;2023-04-03T02:39:20;3.53;;;3.23;;
14394;SDS011;7282;49.204;10.652;2023-04-03T02:41:46;3.57;;;3.27;;
14394;SDS011;7282;49.204;10.652;2023-04-03T02:44:13;3.70;;;3.30;;
14394;SDS011;7282;49.204;10.652;2023-04-03T02:46:40;3.63;;;3.33;;
14394;SDS011;7282;49.204;10.652;2023-04-03T02:49:07;4.17;;;3.50;;
14394;SDS011;7282;49.204;10.652;2023-04-03T02:51:33;3.93;;;3.53;;
14394;SDS011;7282;49.204;10.652;2023-04-03T02:54:00;3.53;;;3.00;;
14394;SDS011;7282;49.204;10.652;2023-04-03T02:56:27;3.97;;;3.10;;
14394;SDS011;7282;49.204;10.652;2023-04-03T02:58:54;3.10;;;2.90;;
14394;SDS011;7282;49.204;10.652;2023-04-03T03:01:20;5.03;;;3.47;;
14394;SDS011;7282;49.204;10.652;2023-04-03T03:03:47;3.93;;;3.20;;
14394;SDS011;7282;49.204;10.652;2023-04-03T03:06:15;3.43;;;3.23;;
14394;SDS011;7282;49.204;10.652;2023-04-03T03:08:42;3.87;;;3.10;;
14394;SDS011;7282;49.204;10.652;2023-04-03T03:11:09;3.57;;;3.27;;
14394;SDS011;7282;49.204;10.652;2023-04-03T03:13:36;4.30;;;3.10;;
14394;SDS011;7282;49.204;10.652;2023-04-03T03:16:03;3.53;;;2.83;;
14394;SDS011;7282;49.204;10.652;2023-04-03T03:18:30;3.67;;;3.37;;
14394;SDS011;7282;49.204;10.652;2023-04-03T03:20:57;3.53;;;3.23;;
14394;SDS011;7282;49.204;10.652;2023-04-03T03:23:25;4.20;;;3.10;;
14394;SDS011;7282;49.204;10.652;2023-04-03T03:25:55;3.43;;;3.13;;
14394;SDS011;7282;49.204;10.652;2023-04-03T03:28:22;3.40;;;3.10;;
14394;SDS011;7282;49.204;10.652;2023-04-03T03:30:49;3.73;;;3.33;;
14394;SDS011;7282;49.204;10.652;2023-04-03T03:33:16;4.23;;;3.47;;
14394;SDS011;7282;49.204;10.652;2023-04-03T03:35:43;4.97;;;3.30;;
14394;SDS011;7282;49.204;10.652;2023-04-03T03:38:10;6.00;;;3.57;;
14394;SDS011;7282;49.204;10.652;2023-04-03T03:40:37;4.30;;;3.70;;
14394;SDS011;7282;49.204;10.652;2023-04-03T03:43:03;3.70;;;3.20;;
14394;SDS011;7282;49.204;10.652;2023-04-03T03:45:30;3.63;;;3.20;;
14394;SDS011;7282;49.204;10.652;2023-04-03T03:47:57;4.70;;;3.23;;
14394;SDS011;7282;49.204;10.652;2023-04-03T03:50:23;3.70;;;3.40;;
14394;SDS011;7282;49.204;10.652;2023-04-03T03:52:50;4.30;;;3.53;;
14394;SDS011;7282;49.204;10.652;2023-04-03T03:55:17;3.60;;;3.30;;
14394;SDS011;7282;49.204;10.652;2023-04-03T03:57:44;4.00;;;3.20;;
14394;SDS011;7282;49.204;10.652;2023-04-03T04:00:11;4.03;;;3.23;;
14394;SDS011;7282;49.204;10.652;2023-04-03T04:02:37;3.67;;;3.37;;
14394;SDS011;7282;49.204;10.652;2023-04-03T04:05:04;4.07;;;3.17;;
14394;SDS011;7282;49.204;10.652;2023-04-03T04:07:31;3.90;;;3.13;;
14394;SDS011;7282;49.204;10.652;2023-04-03T04:09:57;3.87;;;2.93;;
14394;SDS011;7282;49.204;10.652;2023-04-03T04:12:24;3.77;;;3.47;;
14394;SDS011;7282;49.204;10.652;2023-04-03T04:14:51;3.97;;;3.50;;
14394;SDS011;7282;49.204;10.652;2023-04-03T04:17:18;6.33;;;3.47;;
14394;SDS011;7282;49.204;10.652;2023-04-03T04:19:44;4.03;;;3.53;;
14394;SDS011;7282;49.204;10.652;2023-04-03T04:22:11;4.67;;;3.67;;
14394;SDS011;7282;49.204;10.652;2023-04-03T04:24:38;3.80;;;3.50;;
14394;SDS011;7282;49.204;10.652;2023-04-03T04:27:05;5.63;;;4.07;;
14394;SDS011;7282;49.204;10.652;2023-04-03T04:29:31;3.80;;;3.50;;
14394;SDS011;7282;49.204;10.652;2023-04-03T04:32:00;3.70;;;3.40;;
14394;SDS011;7282;49.204;10.652;2023-04-03T04:34:26;3.97;;;3.43;;
14394;SDS011;7282;49.204;10.652;2023-04-03T04:36:53;6.33;;;3.60;;
14394;SDS011;7282;49.204;10.652;2023-04-03T04:39:20;4.20;;;3.23;;
14394;SDS011;7282;49.204;10.652;2023-04-03T04:41:47;3.87;;;3.57;;
14394;SDS011;7282;49.204;10.652;2023-04-03T04:44:13;4.40;;;3.43;;
14394;SDS011;7282;49.204;10.652;2023-04-03T04:46:40;5.20;;;4.00;;
14394;SDS011;7282;49.204;10.652;2023-04-03T04:49:07;4.93;;;4.43;;
14394;SDS011;7282;49.204;10.652;2023-04-03T04:51:34;4.00;;;3.57;;
14394;SDS011;7282;49.204;10.652;2023-04-03T04:54:01;5.13;;;3.37;;
14394;SDS011;7282;49.204;10.652;2023-04-03T04:56:27;7.73;;;4.30;;
14394;SDS011;7282;49.204;10.652;2023-04-03T04:58:54;5.53;;;4.30;;
14394;SDS011;7282;49.204;10.652;2023-04-03T05:01:21;5.03;;;4.27;;
14394;SDS011;7282;49.204;10.652;2023-04-03T05:03:47;5.33;;;4.27;;
14394;SDS011;7282;49.204;10.652;2023-04-03T05:06:14;5.13;;;4.17;;
14394;SDS011;7282;49.204;10.652;2023-04-03T05:08:41;4.37;;;3.97;;
14394;SDS011;7282;49.204;10.652;2023-04-03T05:11:07;5.60;;;3.97;;
14394;SDS011;7282;49.204;10.652;2023-04-03T05:13:34;5.97;;;3.80;;
14394;SDS011;7282;49.204;10.652;2023-04-03T05:16:01;4.73;;;4.23;;
14394;SDS011;7282;49.204;10.652;2023-04-03T05:18:28;4.90;;;4.17;;
14394;SDS011;7282;49.204;10.652;2023-04-03T05:20:54;4.33;;;4.03;;
14394;SDS011;7282;49.204;10.652;2023-04-03T05:23:21;4.67;;;4.20;;
14394;SDS011;7282;49.204;10.652;2023-04-03T05:25:48;5.83;;;4.50;;
14394;SDS011;7282;49.204;10.652;2023-04-03T05:28:14;5.90;;;4.03;;
14394;SDS011;7282;49.204;10.652;2023-04-03T05:30:41;6.17;;;4.17;;
14394;SDS011;7282;49.204;10.652;2023-04-03T05:33:08;4.53;;;4.13;;
14394;SDS011;7282;49.204;10.652;2023-04-03T05:35:35;5.00;;;4.50;;
14394;SDS011;7282;49.204;10.652;2023-04-03T05:38:04;5.97;;;4.70;;
14394;SDS011;7282;49.204;10.652;2023-04-03T05:40:31;5.43;;;4.47;;
14394;SDS011;7282;49.204;10.652;2023-04-03T05:42:58;5.47;;;4.00;;
14394;SDS011;7282;49.204;10.652;2023-04-03T05:45:25;6.13;;;4.80;;
14394;SDS011;7282;49.204;10.652;2023-04-03T05:47:51;6.67;;;3.90;;
14394;SDS011;7282;49.204;10.652;2023-04-03T05:50:18;8.77;;;5.27;;
14394;SDS011;7282;49.204;10.652;2023-04-03T05:52:45;5.77;;;4.37;;
14394;SDS011;7282;49.204;10.652;2023-04-03T05:55:13;6.97;;;4.83;;
14394;SDS011;7282;49.204;10.652;2023-04-03T05:57:39;5.77;;;4.50;;
14394;SDS011;7282;49.204;10.652;2023-04-03T06:00:07;6.23;;;4.57;;
14394;SDS011;7282;49.204;10.652;2023-04-03T06:02:35;6.27;;;4.80;;
14394;SDS011;7282;49.204;10.652;2023-04-03T06:05:02;6.00;;;4.60;;
14394;SDS011;7282;49.204;10.652;2023-04-03T06:07:28;4.80;;;4.30;;
14394;SDS011;7282;49.204;10.652;2023-04-03T06:09:56;5.60;;;4.40;;
14394;SDS011;7282;49.204;10.652;2023-04-03T06:12:23;5.83;;;4.33;;
14394;SDS011;7282;49.204;10.652;2023-04-03T06:14:50;5.20;;;4.70;;
14394;SDS011;7282;49.204;10.652;2023-04-03T06:17:17;5.47;;;4.93;;
14394;SDS011;7282;49.204;10.652;2023-04-03T06:19:44;6.60;;;4.53;;
14394;SDS011;7282;49.204;10.652;2023-04-03T06:22:11;5.03;;;4.50;;
14394;SDS011;7282;49.204;10.652;2023-04-03T06:24:38;7.23;;;4.73;;
14394;SDS011;7282;49.204;10.652;2023-04-03T06:27:05;4.90;;;4.50;;
14394;SDS011;7282;49.204;10.652;2023-04-03T06:29:32;7.07;;;4.53;;
14394;SDS011;7282;49.204;10.652;2023-04-03T06:31:58;4.97;;;4.57;;
14394;SDS011;7282;49.204;10.652;2023-04-03T06:34:25;6.37;;;4.27;;
14394;SDS011;7282;49.204;10.652;2023-04-03T06:36:52;5.37;;;4.63;;
14394;SDS011;7282;49.204;10.652;2023-04-03T06:39:19;6.93;;;4.33;;
14394;SDS011;7282;49.204;10.652;2023-04-03T06:41:49;6.07;;;4.17;;
14394;SDS011;7282;49.204;10.652;2023-04-03T06:44:16;6.00;;;4.43;;
14394;SDS011;7282;49.204;10.652;2023-04-03T06:46:43;6.00;;;4.10;;
14394;SDS011;7282;49.204;10.652;2023-04-03T06:49:11;6.80;;;3.87;;
14394;SDS011;7282;49.204;10.652;2023-04-03T06:51:38;8.73;;;4.17;;
14394;SDS011;7282;49.204;10.652;2023-04-03T06:54:05;4.03;;;3.73;;
14394;SDS011;7282;49.204;10.652;2023-04-03T06:56:32;4.53;;;3.70;;
14394;SDS011;7282;49.204;10.652;2023-04-03T06:58:59;6.40;;;4.03;;
14394;SDS011;7282;49.204;10.652;2023-04-03T07:01:26;4.73;;;4.00;;
14394;SDS011;7282;49.204;10.652;2023-04-03T07:03:53;4.20;;;3.80;;
14394;SDS011;7282;49.204;10.652;2023-04-03T07:06:20;7.30;;;4.70;;
14394;SDS011;7282;49.204;10.652;2023-04-03T07:08:47;6.10;;;4.10;;
14394;SDS011;7282;49.204;10.652;2023-04-03T07:11:15;5.17;;;4.00;;
14394;SDS011;7282;49.204;10.652;2023-04-03T07:13:41;6.63;;;4.20;;
14394;SDS011;7282;49.204;10.652;2023-04-03T07:16:08;6.30;;;4.57;;
14394;SDS011;7282;49.204;10.652;2023-04-03T07:18:35;4.83;;;4.37;;
14394;SDS011;7282;49.204;10.652;2023-04-03T07:21:02;5.17;;;3.90;;
14394;SDS011;7282;49.204;10.652;2023-04-03T07:23:29;4.77;;;3.70;;
14394;SDS011;7282;49.204;10.652;2023-04-03T07:25:56;6.80;;;4.30;;
14394;SDS011;7282;49.204;10.652;2023-04-03T07:28:23;4.63;;;3.70;;
14394;SDS011;7282;49.204;10.652;2023-04-03T07:30:51;5.80;;;3.73;;
14394;SDS011;7282;49.204;10.652;2023-04-03T07:33:19;4.67;;;3.60;;
14394;SDS011;7282;49.204;10.652;2023-04-03T07:35:46;6.63;;;3.90;;
14394;SDS011;7282;49.204;10.652;2023-04-03T07:38:13;4.80;;;3.53;;
14394;SDS011;7282;49.204;10.652;2023-04-03T07:40:40;4.00;;;3.40;;
14394;SDS011;7282;49.204;10.652;2023-04-03T07:43:08;4.53;;;4.13;;
14394;SDS011;7282;49.204;10.652;2023-04-03T07:45:35;4.00;;;3.60;;
14394;SDS011;7282;49.204;10.652;2023-04-03T07:48:02;5.00;;;3.50;;
14394;SDS011;7282;49.204;10.652;2023-04-03T07:50:29;4.73;;;3.90;;
14394;SDS011;7282;49.204;10.652;2023-04-03T07:52:57;5.73;;;3.80;;
14394;SDS011;7282;49.204;10.652;2023-04-03T07:55:24;4.53;;;3.30;;
14394;SDS011;7282;49.204;10.652;2023-04-03T07:57:51;4.67;;;3.57;;
14394;SDS011;7282;49.204;10.652;2023-04-03T08:00:17;6.40;;;3.50;;
14394;SDS011;7282;49.204;10.652;2023-04-03T08:02:45;4.37;;;3.50;;
14394;SDS011;7282;49.204;10.652;2023-04-03T08:05:21;4.57;;;3.50;;
14394;SDS011;7282;49.204;10.652;2023-04-03T08:07:45;3.57;;;3.20;;
14394;SDS011;7282;49.204;10.652;2023-04-03T08:10:14;6.17;;;4.00;;
14394;SDS011;7282;49.204;10.652;2023-04-03T08:12:41;5.27;;;3.40;;
14394;SDS011;7282;49.204;10.652;2023-04-03T08:15:08;4.20;;;3.80;;
14394;SDS011;7282;49.204;10.652;2023-04-03T08:17:35;4.07;;;3.40;;
14394;SDS011;7282;49.204;10.652;2023-04-03T08:20:02;3.93;;;3.63;;
14394;SDS011;7282;49.204;10.652;2023-04-03T08:22:30;5.83;;;3.70;;
14394;SDS011;7282;49.204;10.652;2023-04-03T08:24:57;3.80;;;3.30;;
14394;SDS011;7282;49.204;10.652;2023-04-03T08:27:23;6.17;;;3.50;;
14394;SDS011;7282;49.204;10.652;2023-04-03T08:29:50;4.47;;;3.77;;
14394;SDS011;7282;49.204;10.652;2023-04-03T08:32:17;5.37;;;3.97;;
14394;SDS011;7282;49.204;10.652;2023-04-03T08:34:45;5.60;;;3.37;;
14394;SDS011;7282;49.204;10.652;2023-04-03T08:37:12;4.40;;;3.07;;
14394;SDS011;7282;49.204;10.652;2023-04-03T08:39:39;7.13;;;3.67;;
14394;SDS011;7282;49.204;10.652;2023-04-03T08:42:12;4.97;;;3.53;;
14394;SDS011;7282;49.204;10.652;2023-04-03T08:49:42;5.93;;;4.37;;
14394;SDS011;7282;49.204;10.652;2023-04-03T08:52:10;4.23;;;3.50;;
14394;SDS011;7282;49.204;10.652;2023-04-03T08:54:49;4.30;;;3.37;;
14394;SDS011;7282;49.204;10.652;2023-04-03T08:57:17;6.33;;;3.77;;
14394;SDS011;7282;49.204;10.652;2023-04-03T08:59:45;3.60;;;3.30;;
14394;SDS011;7282;49.204;10.652;2023-04-03T09:02:58;4.67;;;3.80;;
14394;SDS011;7282;49.204;10.652;2023-04-03T09:04:40;4.20;;;3.70;;
14394;SDS011;7282;49.204;10.652;2023-04-03T09:07:08;6.43;;;3.53;;
14394;SDS011;7282;49.204;10.652;2023-04-03T09:09:37;4.27;;;3.87;;
14394;SDS011;7282;49.204;10.652;2023-04-03T09:14:39;5.97;;;3.37;;
14394;SDS011;7282;49.204;10.652;2023-04-03T09:20:07;5.77;;;3.63;;
14394;SDS011;7282;49.204;10.652;2023-04-03T09:22:31;4.80;;;3.47;;
14394;SDS011;7282;49.204;10.652;2023-04-03T09:25:05;4.90;;;3.77;;
14394;SDS011;7282;49.204;10.652;2023-04-03T09:27:27;6.00;;;3.27;;
14394;SDS011;7282;49.204;10.652;2023-04-03T09:29:55;4.37;;;3.17;;
14394;SDS011;7282;49.204;10.652;2023-04-03T09:32:30;4.00;;;3.27;;
14394;SDS011;7282;49.204;10.652;2023-04-03T09:34:59;4.33;;;3.23;;
14394;SDS011;7282;49.204;10.652;2023-04-03T09:37:41;5.80;;;3.57;;
14394;SDS011;7282;49.204;10.652;2023-04-03T09:42:59;4.00;;;3.60;;
14394;SDS011;7282;49.204;10.652;2023-04-03T09:45:28;4.60;;;3.77;;
14394;SDS011;7282;49.204;10.652;2023-04-03T09:48:04;3.70;;;3.03;;
14394;SDS011;7282;49.204;10.652;2023-04-03T09:50:21;5.73;;;3.87;;
14394;SDS011;7282;49.204;10.652;2023-04-03T09:52:50;3.73;;;3.40;;
14394;SDS011;7282;49.204;10.652;2023-04-03T09:55:20;4.63;;;3.53;;
14394;SDS011;7282;49.204;10.652;2023-04-03T09:57:48;4.17;;;3.07;;
14394;SDS011;7282;49.204;10.652;2023-04-03T10:00:27;3.20;;;2.90;;
14394;SDS011;7282;49.204;10.652;2023-04-03T10:02:54;3.33;;;3.00;;
14394;SDS011;7282;49.204;10.652;2023-04-03T10:05:33;4.33;;;2.93;;
14394;SDS011;7282;49.204;10.652;2023-04-03T10:10:35;3.33;;;3.03;;
14394;SDS011;7282;49.204;10.652;2023-04-03T10:13:11;4.30;;;3.47;;
14394;SDS011;7282;49.204;10.652;2023-04-03T10:15:39;3.63;;;2.70;;
14394;SDS011;7282;49.204;10.652;2023-04-03T10:18:06;3.67;;;2.80;;
14394;SDS011;7282;49.204;10.652;2023-04-03T10:20:43;3.00;;;2.70;;
14394;SDS011;7282;49.204;10.652;2023-04-03T10:23:15;3.50;;;3.17;;
14394;SDS011;7282;49.204;10.652;2023-04-03T10:25:44;3.23;;;2.87;;
14394;SDS011;7282;49.204;10.652;2023-04-03T10:28:14;3.50;;;3.00;;
14394;SDS011;7282;49.204;10.652;2023-04-03T10:35:53;4.07;;;3.13;;
14394;SDS011;7282;49.204;10.652;2023-04-03T10:38:36;4.40;;;3.07;;
14394;SDS011;7282;49.204;10.652;2023-04-03T10:41:07;5.80;;;3.00;;
14394;SDS011;7282;49.204;10.652;2023-04-03T10:43:36;3.50;;;2.73;;
14394;SDS011;7282;49.204;10.652;2023-04-03T10:46:09;3.00;;;2.77;;
14394;SDS011;7282;49.204;10.652;2023-04-03T10:51:16;3.90;;;3.00;;
14394;SDS011;7282;49.204;10.652;2023-04-03T10:53:45;3.33;;;3.00;;
14394;SDS011;7282;49.204;10.652;2023-04-03T10:56:15;3.20;;;2.67;;
14394;SDS011;7282;49.204;10.652;2023-04-03T10:58:52;3.07;;;2.77;;
14394;SDS011;7282;49.204;10.652;2023-04-03T11:01:24;2.90;;;2.60;;
14394;SDS011;7282;49.204;10.652;2023-04-03T11:03:56;3.00;;;2.57;;
14394;SDS011;7282;49.204;10.652;2023-04-03T11:06:24;3.70;;;2.87;;
14394;SDS011;7282;49.204;10.652;2023-04-03T11:08:56;3.07;;;2.77;;
14394;SDS011;7282;49.204;10.652;2023-04-03T11:11:27;4.23;;;2.60;;
14394;SDS011;7282;49.204;10.652;2023-04-03T11:13:57;4.30;;;2.90;;
14394;SDS011;7282;49.204;10.652;2023-04-03T11:16:24;4.80;;;2.90;;
14394;SDS011;7282;49.204;10.652;2023-04-03T11:18:54;2.97;;;2.60;;
14394;SDS011;7282;49.204;10.652;2023-04-03T11:21:22;3.10;;;2.50;;
14394;SDS011;7282;49.204;10.652;2023-04-03T11:23:50;3.00;;;2.73;;
14394;SDS011;7282;49.204;10.652;2023-04-03T11:26:19;3.10;;;2.43;;
14394;SDS011;7282;49.204;10.652;2023-04-03T11:28:46;3.60;;;2.70;;
14394;SDS011;7282;49.204;10.652;2023-04-03T11:31:23;3.00;;;2.70;;
14394;SDS011;7282;49.204;10.652;2023-04-03T11:36:22;3.27;;;2.97;;
14394;SDS011;7282;49.204;10.652;2023-04-03T11:38:47;3.37;;;2.50;;
14394;SDS011;7282;49.204;10.652;2023-04-03T11:41:15;3.43;;;2.60;;
14394;SDS011;7282;49.204;10.652;2023-04-03T11:44:05;2.63;;;2.37;;
14394;SDS011;7282;49.204;10.652;2023-04-03T11:46:11;3.63;;;2.80;;
14394;SDS011;7282;49.204;10.652;2023-04-03T11:53:45;3.40;;;2.50;;
14394;SDS011;7282;49.204;10.652;2023-04-03T11:59:27;3.67;;;3.37;;
14394;SDS011;7282;49.204;10.652;2023-04-03T12:04:12;4.47;;;2.63;;
14394;SDS011;7282;49.204;10.652;2023-04-03T12:06:49;2.67;;;2.47;;
14394;SDS011;7282;49.204;10.652;2023-04-03T12:11:51;3.97;;;2.60;;
14394;SDS011;7282;49.204;10.652;2023-04-03T12:14:18;3.47;;;2.63;;
14394;SDS011;7282;49.204;10.652;2023-04-03T12:16:46;2.93;;;2.63;;
14394;SDS011;7282;49.204;10.652;2023-04-03T12:19:33;5.13;;;2.83;;
14394;SDS011;7282;49.204;10.652;2023-04-03T12:24:30;2.67;;;2.20;;
14394;SDS011;7282;49.204;10.652;2023-04-03T12:34:47;2.90;;;2.30;;
14394;SDS011;7282;49.204;10.652;2023-04-03T12:37:21;2.93;;;2.63;;
14394;SDS011;7282;49.204;10.652;2023-04-03T12:40:01;3.60;;;2.50;;
14394;SDS011;7282;49.204;10.652;2023-04-03T12:45:14;3.67;;;2.60;;
14394;SDS011;7282;49.204;10.652;2023-04-03T12:47:39;3.53;;;3.00;;
14394;SDS011;7282;49.204;10.652;2023-04-03T12:53:04;3.37;;;2.30;;
14394;SDS011;7282;49.204;10.652;2023-04-03T12:55:30;2.67;;;2.37;;
14394;SDS011;7282;49.204;10.652;2023-04-03T12:57:57;3.50;;;2.23;;
14394;SDS011;7282;49.204;10.652;2023-04-03T13:00:34;3.00;;;2.70;;
14394;SDS011;7282;49.204;10.652;2023-04-03T13:03:02;2.57;;;2.33;;
14394;SDS011;7282;49.204;10.652;2023-04-03T13:05:30;3.00;;;2.67;;
14394;SDS011;7282;49.204;10.652;2023-04-03T13:08:01;5.10;;;2.60;;
14394;SDS011;7282;49.204;10.652;2023-04-03T13:10:29;3.80;;;2.60;;
14394;SDS011;7282;49.204;10.652;2023-04-03T13:12:58;2.80;;;2.60;;
14394;SDS011;7282;49.204;10.652;2023-04-03T13:15:30;2.77;;;2.50;;
14394;SDS011;7282;49.204;10.652;2023-04-03T13:17:55;2.60;;;2.40;;
14394;SDS011;7282;49.204;10.652;2023-04-03T13:20:24;3.13;;;2.33;;
14394;SDS011;7282;49.204;10.652;2023-04-03T13:23:01;2.77;;;2.57;;
14394;SDS011;7282;49.204;10.652;2023-04-03T13:25:29;4.97;;;2.77;;
14394;SDS011;7282;49.204;10.652;2023-04-03T13:27:57;3.43;;;3.00;;
14394;SDS011;7282;49.204;10.652;2023-04-03T13:30:36;3.70;;;2.67;;
14394;SDS011;7282;49.204;10.652;2023-04-03T13:33:00;2.73;;;2.50;;
14394;SDS011;7282;49.204;10.652;2023-04-03T13:35:30;3.70;;;2.80;;
14394;SDS011;7282;49.204;10.652;2023-04-03T13:37:57;3.03;;;2.73;;
14394;SDS011;7282;49.204;10.652;2023-04-03T13:40:24;2.83;;;2.63;;
14394;SDS011;7282;49.204;10.652;2023-04-03T13:43:01;5.13;;;2.80;;
14394;SDS011;7282;49.204;10.652;2023-04-03T13:45:29;3.33;;;3.00;;
14394;SDS011;7282;49.204;10.652;2023-04-03T13:50:27;3.07;;;2.47;;
14394;SDS011;7282;49.204;10.652;2023-04-03T13:52:59;2.47;;;2.27;;
14394;SDS011;7282;49.204;10.652;2023-04-03T13:55:34;3.93;;;2.57;;
14394;SDS011;7282;49.204;10.652;2023-04-03T13:57:59;3.50;;;2.30;;
14394;SDS011;7282;49.204;10.652;2023-04-03T14:00:28;3.57;;;2.57;;
14394;SDS011;7282;49.204;10.652;2023-04-03T14:02:55;3.70;;;2.90;;
14394;SDS011;7282;49.204;10.652;2023-04-03T14:05:22;2.67;;;2.40;;
14394;SDS011;7282;49.204;10.652;2023-04-03T14:07:51;2.70;;;2.50;;
14394;SDS011;7282;49.204;10.652;2023-04-03T14:10:18;6.30;;;2.90;;
14394;SDS011;7282;49.204;10.652;2023-04-03T14:12:45;4.43;;;2.80;;
14394;SDS011;7282;49.204;10.652;2023-04-03T14:15:33;3.30;;;2.33;;
14394;SDS011;7282;49.204;10.652;2023-04-03T14:17:41;4.33;;;2.67;;
14394;SDS011;7282;49.204;10.652;2023-04-03T14:20:14;3.73;;;2.47;;
14394;SDS011;7282;49.204;10.652;2023-04-03T14:22:36;4.87;;;2.80;;
14394;SDS011;7282;49.204;10.652;2023-04-03T14:25:03;4.10;;;2.50;;
14394;SDS011;7282;49.204;10.652;2023-04-03T14:27:35;2.90;;;2.70;;
14394;SDS011;7282;49.204;10.652;2023-04-03T14:30:04;2.97;;;2.67;;
14394;SDS011;7282;49.204;10.652;2023-04-03T14:32:31;4.07;;;2.40;;
14394;SDS011;7282;49.204;10.652;2023-04-03T14:34:58;3.63;;;2.30;;
14394;SDS011;7282;49.204;10.652;2023-04-03T14:37:27;2.53;;;2.10;;
14394;SDS011;7282;49.204;10.652;2023-04-03T14:39:55;2.83;;;2.40;;
14394;SDS011;7282;49.204;10.652;2023-04-03T14:42:24;3.47;;;2.23;;
14394;SDS011;7282;49.204;10.652;2023-04-03T14:44:51;2.83;;;2.50;;
14394;SDS011;7282;49.204;10.652;2023-04-03T14:47:19;3.10;;;2.10;;
14394;SDS011;7282;49.204;10.652;2023-04-03T14:49:46;3.00;;;2.10;;
14394;SDS011;7282;49.204;10.652;2023-04-03T14:52:22;3.53;;;2.60;;
14394;SDS011;7282;49.204;10.652;2023-04-03T14:54:48;2.73;;;1.97;;
14394;SDS011;7282;49.204;10.652;2023-04-03T14:57:15;3.00;;;2.30;;
14394;SDS011;7282;49.204;10.652;2023-04-03T14:59:43;2.57;;;2.30;;
14394;SDS011;7282;49.204;10.652;2023-04-03T15:04:55;3.50;;;2.40;;
14394;SDS011;7282;49.204;10.652;2023-04-03T15:07:22;3.23;;;2.30;;
14394;SDS011;7282;49.204;10.652;2023-04-03T15:09:50;2.80;;;2.57;;
14394;SDS011;7282;49.204;10.652;2023-04-03T15:12:17;2.53;;;2.20;;
14394;SDS011;7282;49.204;10.652;2023-04-03T15:14:43;4.47;;;2.57;;
14394;SDS011;7282;49.204;10.652;2023-04-03T15:17:14;2.40;;;2.10;;
14394;SDS011;7282;49.204;10.652;2023-04-03T15:19:39;2.77;;;2.50;;
14394;SDS011;7282;49.204;10.652;2023-04-03T15:22:11;2.60;;;2.40;;
14394;SDS011;7282;49.204;10.652;2023-04-03T15:24:36;2.77;;;2.13;;
14394;SDS011;7282;49.204;10.652;2023-04-03T15:27:03;3.03;;;2.20;;
14394;SDS011;7282;49.204;10.652;2023-04-03T15:29:30;2.93;;;2.13;;
14394;SDS011;7282;49.204;10.652;2023-04-03T15:31:56;2.80;;;2.30;;
14394;SDS011;7282;49.204;10.652;2023-04-03T15:34:23;3.93;;;2.30;;
14394;SDS011;7282;49.204;10.652;2023-04-03T15:36:50;3.00;;;2.30;;
14394;SDS011;7282;49.204;10.652;2023-04-03T15:39:18;3.00;;;2.33;;
14394;SDS011;7282;49.204;10.652;2023-04-03T15:41:46;2.60;;;2.10;;
14394;SDS011;7282;49.204;10.652;2023-04-03T15:44:13;4.00;;;2.20;;
14394;SDS011;7282;49.204;10.652;2023-04-03T15:46:40;3.90;;;2.43;;
14394;SDS011;7282;49.204;10.652;2023-04-03T15:49:07;3.00;;;2.20;;
14394;SDS011;7282;49.204;10.652;2023-04-03T15:51:34;3.37;;;2.40;;
14394;SDS011;7282;49.204;10.652;2023-04-03T15:54:00;2.43;;;2.20;;
14394;SDS011;7282;49.204;10.652;2023-04-03T15:56:27;2.77;;;2.10;;